Time;durP1;ratioP1;P1;durP2;ratioP2;P2;SDS_P1;SDS_P2;PMS_P1;PMS_P2;Temp;Humidity;BMP_temperature;BMP_pressure;BME280_temperature;BME280_humidity;BME280_pressure;Samples;Min_cycle;Max_cycle;Signal;HPM_P1;HPM_P2
2023/07/22 00:00:53;;;;;;;33.95;13.32;;;;;;;26.49;100.00;98362.16;5137569;27;20047;-94
2023/07/22 00:03:19;;;;;;;31.30;12.68;;;;;;;26.32;100.00;98369.28;5137711;27;20066;-96
2023/07/22 00:05:45;;;;;;;36.30;13.07;;;;;;;26.22;100.00;98362.03;5137556;27;20035;-95
2023/07/22 00:08:11;;;;;;;30.55;13.43;;;;;;;26.23;100.00;98363.72;5137228;27;20079;-96
2023/07/22 00:10:43;;;;;;;30.92;14.68;;;;;;;26.33;100.00;98363.69;5137177;27;20043;-95
2023/07/22 00:13:09;;;;;;;32.60;13.60;;;;;;;26.24;100.00;98356.44;5137847;27;20063;-95
2023/07/22 00:15:35;;;;;;;38.83;16.42;;;;;;;26.13;100.00;98357.47;5137364;27;20070;-96
2023/07/22 00:18:00;;;;;;;33.00;13.57;;;;;;;26.18;100.00;98362.47;5137481;27;20437;-96
2023/07/22 00:20:26;;;;;;;29.73;13.77;;;;;;;26.12;100.00;98355.75;5137055;27;20050;-95
2023/07/22 00:22:55;;;;;;;32.60;13.57;;;;;;;26.09;100.00;98356.06;5137761;27;20349;-95
2023/07/22 00:25:22;;;;;;;35.08;13.77;;;;;;;26.09;100.00;98363.34;5137185;27;20043;-96
2023/07/22 00:27:49;;;;;;;35.75;13.18;;;;;;;25.95;100.00;98335.59;5137120;27;20023;-94
2023/07/22 00:30:15;;;;;;;35.72;15.93;;;;;;;25.88;100.00;98328.16;5119760;27;20043;-94
2023/07/22 00:32:41;;;;;;;38.45;13.70;;;;;;;25.99;100.00;98353.34;5136439;27;20092;-95
2023/07/22 00:35:09;;;;;;;33.70;14.07;;;;;;;26.01;100.00;98356.78;5136255;27;20047;-96
2023/07/22 00:37:35;;;;;;;37.75;14.43;;;;;;;26.05;100.00;98361.97;5136669;27;20043;-96
2023/07/22 00:40:01;;;;;;;40.88;14.90;;;;;;;25.95;100.00;98337.47;5136848;27;20064;-96
2023/07/22 00:42:27;;;;;;;29.55;14.18;;;;;;;25.97;100.00;98335.44;5136884;27;20038;-95
2023/07/22 00:44:54;;;;;;;32.83;14.15;;;;;;;25.94;100.00;98346.66;5136439;27;20043;-95
2023/07/22 00:47:20;;;;;;;27.67;13.82;;;;;;;25.88;100.00;98350.81;5136745;27;20134;-94
2023/07/22 00:49:49;;;;;;;32.88;14.98;;;;;;;25.69;100.00;98340.81;5136888;27;20055;-95
2023/07/22 00:52:16;;;;;;;38.05;14.82;;;;;;;25.70;100.00;98338.94;5136501;27;20039;-96
2023/07/22 00:54:42;;;;;;;34.65;13.50;;;;;;;25.80;100.00;98346.06;5119584;27;20054;-95
2023/07/22 00:57:09;;;;;;;32.60;14.48;;;;;;;25.77;100.00;98345.53;5119386;28;20137;-94
2023/07/22 00:59:35;;;;;;;30.70;15.05;;;;;;;25.73;100.00;98344.97;5119462;27;20467;-95
2023/07/22 01:02:03;;;;;;;32.90;16.60;;;;;;;25.56;100.00;98332.97;5119530;27;20138;-96
2023/07/22 01:04:29;;;;;;;33.17;14.60;;;;;;;25.53;100.00;98333.28;5119096;27;20066;-95
2023/07/22 01:06:55;;;;;;;30.00;15.20;;;;;;;25.53;100.00;98327.81;5119146;27;20039;-95
2023/07/22 01:09:21;;;;;;;30.23;14.82;;;;;;;25.58;100.00;98330.94;5119017;28;20030;-94
2023/07/22 01:11:48;;;;;;;39.95;15.48;;;;;;;25.70;100.00;98338.94;5119229;27;20400;-95
2023/07/22 01:14:14;;;;;;;32.08;14.73;;;;;;;25.62;100.00;98312.47;5118348;27;20043;-95
2023/07/22 01:16:40;;;;;;;32.58;14.80;;;;;;;25.61;100.00;98306.16;5117894;27;20541;-94
2023/07/22 01:19:08;;;;;;;37.78;15.32;;;;;;;25.71;100.00;98322.47;5119457;28;20070;-94
2023/07/22 01:21:34;;;;;;;;;;;;;;;25.73;100.00;98339.50;5119658;27;20138;-95
2023/07/22 01:24:01;;;;;;;31.90;13.55;;;;;;;25.66;100.00;98332.09;5118975;28;19986;-94
2023/07/22 01:26:27;;;;;;;37.67;15.07;;;;;;;25.70;100.00;98325.31;5119178;28;20046;-94
2023/07/22 01:29:02;;;;;;;38.00;16.70;;;;;;;25.62;100.00;98307.03;5119203;28;20507;-95
2023/07/22 01:31:28;;;;;;;33.17;14.27;;;;;;;25.64;100.00;98310.47;5118738;28;20568;-94
2023/07/22 01:33:54;;;;;;;31.00;13.75;;;;;;;25.71;100.00;98327.06;5119705;28;20071;-94
2023/07/22 01:36:20;;;;;;;33.78;15.18;;;;;;;25.74;100.00;98326.75;5119050;28;20070;-94
2023/07/22 01:38:46;;;;;;;34.22;13.98;;;;;;;25.75;100.00;98323.88;5119210;28;20084;-95
2023/07/22 01:41:13;;;;;;;29.38;14.73;;;;;;;25.78;100.00;98329.03;5119406;28;20039;-95
2023/07/22 01:43:39;;;;;;;30.15;14.32;;;;;;;25.71;100.00;98305.28;5114652;28;20102;-95
2023/07/22 01:46:05;;;;;;;31.85;14.60;;;;;;;25.76;100.00;98312.00;5098489;28;20441;-95
2023/07/22 01:48:30;;;;;;;34.80;14.48;;;;;;;25.77;100.00;98302.81;5098204;28;20046;-95
2023/07/22 01:50:56;;;;;;;31.60;14.23;;;;;;;25.77;100.00;98307.41;5098361;28;20050;-95
2023/07/22 01:53:22;;;;;;;33.65;13.98;;;;;;;25.86;100.00;98320.13;5098727;28;20528;-95
2023/07/22 01:55:48;;;;;;;25.27;13.65;;;;;;;25.72;100.00;98301.53;5098381;28;20035;-95
2023/07/22 01:58:15;;;;;;;29.50;13.07;;;;;;;25.78;100.00;98336.34;5096645;28;20139;-95
2023/07/22 02:00:41;;;;;;;32.40;14.82;;;;;;;25.52;100.00;98315.19;5099253;28;20134;-95
2023/07/22 02:03:07;;;;;;;29.08;12.95;;;;;;;25.56;100.00;98330.25;5098214;28;20071;-95
2023/07/22 02:05:33;;;;;;;32.22;14.85;;;;;;;25.64;100.00;98350.44;5098372;28;20043;-95
2023/07/22 02:07:59;;;;;;;34.03;14.60;;;;;;;25.47;100.00;98335.72;5098535;28;20070;-95
2023/07/22 02:10:25;;;;;;;33.20;15.18;;;;;;;25.47;100.00;98335.72;5102148;28;20046;-94
2023/07/22 02:12:51;;;;;;;27.23;13.82;;;;;;;25.53;100.00;98341.44;5102031;28;20044;-95
2023/07/22 02:15:19;;;;;;;30.35;13.35;;;;;;;25.56;100.00;98360.19;5101892;28;20522;-96
2023/07/22 02:17:44;;;;;;;30.63;14.93;;;;;;;25.69;100.00;98372.63;5101785;28;20044;-96
2023/07/22 02:20:11;;;;;;;30.52;13.80;;;;;;;25.60;100.00;98358.03;5102049;28;20044;-95
2023/07/22 02:22:36;;;;;;;31.80;13.35;;;;;;;25.61;100.00;98352.47;5102070;28;20391;-94
2023/07/22 02:25:03;;;;;;;30.50;13.70;;;;;;;25.72;100.00;98369.59;5101530;28;20126;-96
2023/07/22 02:27:29;;;;;;;28.40;12.73;;;;;;;25.75;100.00;98366.59;5101644;28;20040;-95
2023/07/22 02:29:54;;;;;;;30.55;13.80;;;;;;;25.70;100.00;98371.63;5101905;28;20046;-94
2023/07/22 02:32:22;;;;;;;31.02;13.35;;;;;;;25.72;100.00;98381.38;5101754;28;20049;-94
2023/07/22 02:34:47;;;;;;;31.58;13.38;;;;;;;25.70;100.00;98368.91;5101581;28;20052;-95
2023/07/22 02:37:13;;;;;;;30.85;13.95;;;;;;;25.69;100.00;98367.19;5100805;28;20139;-95
2023/07/22 02:39:39;;;;;;;37.38;14.32;;;;;;;25.66;100.00;98364.78;5101367;28;20043;-96
2023/07/22 02:42:06;;;;;;;28.60;13.93;;;;;;;25.65;100.00;98380.22;5101111;28;20039;-94
2023/07/22 02:44:31;;;;;;;29.73;13.85;;;;;;;25.57;100.00;98375.53;5112185;27;20130;-95
2023/07/22 02:47:00;;;;;;;28.25;13.63;;;;;;;25.60;100.00;98382.56;5128781;27;20063;-94
2023/07/22 02:49:34;;;;;;;26.20;12.77;;;;;;;25.54;100.00;98373.09;5121880;27;20042;-94
2023/07/22 02:52:01;;;;;;;27.58;13.00;;;;;;;25.53;100.00;98387.72;5121576;27;20047;-96
2023/07/22 02:54:26;;;;;;;31.98;13.95;;;;;;;25.55;100.00;98396.59;5121440;27;20415;-95
2023/07/22 02:56:52;;;;;;;31.17;12.73;;;;;;;25.57;100.00;98397.31;5122280;27;20138;-95
2023/07/22 02:59:18;;;;;;;28.40;12.55;;;;;;;25.60;100.00;98415.22;5121558;27;20039;-95
2023/07/22 03:01:45;;;;;;;26.60;13.40;;;;;;;25.59;100.00;98417.09;5121371;27;20032;-94
2023/07/22 03:04:14;;;;;;;29.85;13.15;;;;;;;25.50;100.00;98398.03;5121212;27;20043;-95
2023/07/22 03:06:42;;;;;;;30.63;13.05;;;;;;;25.38;100.00;98391.91;5121025;27;20059;-95
2023/07/22 03:09:08;;;;;;;28.33;12.60;;;;;;;25.38;100.00;98397.34;5121293;27;20060;-95
2023/07/22 03:11:34;;;;;;;26.45;12.30;;;;;;;25.52;100.00;98418.66;5120687;27;20134;-96
2023/07/22 03:14:02;;;;;;;24.60;12.38;;;;;;;25.39;100.00;98399.03;5121373;27;20035;-94
2023/07/22 03:16:33;;;;;;;32.95;13.43;;;;;;;25.36;100.00;98404.78;5120818;27;20069;-94
2023/07/22 03:18:59;;;;;;;26.98;12.85;;;;;;;25.46;100.00;98421.97;5121310;27;20547;-94
2023/07/22 03:21:25;;;;;;;27.27;13.07;;;;;;;25.39;100.00;98407.22;5119451;27;20138;-96
2023/07/22 03:23:52;;;;;;;20.95;12.80;;;;;;;25.36;100.00;98404.78;5120119;27;20047;-95
2023/07/22 03:26:19;;;;;;;28.48;12.38;;;;;;;25.45;100.00;98419.41;5120864;27;20039;-94
2023/07/22 03:28:44;;;;;;;24.35;13.32;;;;;;;25.35;100.00;98403.06;5121068;27;20113;-96
2023/07/22 03:31:10;;;;;;;25.33;12.68;;;;;;;25.31;100.00;98388.91;5120899;27;20047;-94
2023/07/22 03:33:36;;;;;;;26.10;11.93;;;;;;;25.30;100.00;98389.03;5120786;27;20043;-95
2023/07/22 03:36:03;;;;;;;26.25;13.32;;;;;;;25.40;100.00;98414.38;5120835;27;20556;-95
2023/07/22 03:38:32;;;;;;;29.08;12.65;;;;;;;25.32;100.00;98408.81;5120738;27;20050;-95
2023/07/22 03:40:59;;;;;;;27.58;13.25;;;;;;;25.41;100.00;98429.69;5120828;27;20071;-95
2023/07/22 03:43:25;;;;;;;24.70;12.13;;;;;;;25.34;100.00;98409.53;5120453;27;20046;-94
2023/07/22 03:45:51;;;;;;;30.08;12.70;;;;;;;25.33;100.00;98419.56;5120576;27;20039;-94
2023/07/22 03:48:17;;;;;;;26.73;12.43;;;;;;;25.36;100.00;98429.28;5121060;27;20126;-94
2023/07/22 03:50:43;;;;;;;29.77;13.57;;;;;;;25.17;100.00;98401.03;5120573;27;20043;-95
2023/07/22 03:53:09;;;;;;;27.92;13.43;;;;;;;25.27;100.00;98430.16;5120419;27;20039;-94
2023/07/22 03:55:34;;;;;;;25.52;13.13;;;;;;;25.26;100.00;98433.84;5120379;27;20107;-94
2023/07/22 03:58:02;;;;;;;26.92;12.85;;;;;;;25.20;100.00;98441.59;5120529;27;20088;-94
2023/07/22 04:00:27;;;;;;;27.60;12.60;;;;;;;25.08;100.00;98415.50;5120043;27;20082;-94
2023/07/22 04:02:53;;;;;;;24.63;12.10;;;;;;;25.18;100.00;98438.13;5119768;27;20059;-95
2023/07/22 04:05:19;;;;;;;23.80;12.85;;;;;;;25.17;100.00;98430.09;5120227;27;20069;-95
2023/07/22 04:07:45;;;;;;;30.23;12.98;;;;;;;25.02;100.00;98411.47;5128014;27;20041;-94
2023/07/22 04:10:11;;;;;;;27.38;12.40;;;;;;;25.09;100.00;98425.38;5120235;27;20092;-93
2023/07/22 04:12:37;;;;;;;20.17;12.40;;;;;;;25.09;100.00;98430.81;5120490;27;20384;-95
2023/07/22 04:15:05;;;;;;;23.67;12.05;;;;;;;24.97;100.00;98416.47;5120635;27;20044;-94
2023/07/22 04:17:31;;;;;;;28.58;12.77;;;;;;;25.02;100.00;98429.66;5120450;27;20084;-93
2023/07/22 04:19:57;;;;;;;22.52;11.60;;;;;;;25.06;100.00;98446.56;5120027;27;20031;-94
2023/07/22 04:22:23;;;;;;;27.08;12.45;;;;;;;25.03;100.00;98442.28;5119639;27;20043;-94
2023/07/22 04:24:49;;;;;;;31.23;12.32;;;;;;;24.91;100.00;98430.63;5121107;27;20054;-95
2023/07/22 04:27:15;;;;;;;27.27;12.00;;;;;;;25.02;100.00;98446.81;5121636;27;20100;-96
2023/07/22 04:29:45;;;;;;;19.67;11.63;;;;;;;25.03;100.00;98450.44;5125293;27;20492;-96
2023/07/22 04:32:28;;;;;;;25.10;12.45;;;;;;;25.13;100.00;98462.16;5121502;27;20043;-96
2023/07/22 04:34:54;;;;;;;24.58;12.27;;;;;;;25.15;100.00;98459.31;5121275;27;20126;-94
2023/07/22 04:37:20;;;;;;;20.75;12.10;;;;;;;25.19;100.00;98453.47;5120480;27;20141;-94
2023/07/22 04:39:50;;;;;;;19.38;11.90;;;;;;;25.27;100.00;98458.22;5119539;27;20090;-95
2023/07/22 04:42:16;;;;;;;23.15;11.13;;;;;;;25.35;100.00;98476.53;5119668;27;20039;-95
2023/07/22 04:44:44;;;;;;;22.15;11.70;;;;;;;25.38;100.00;98476.28;5119461;27;20027;-94
2023/07/22 04:47:10;;;;;;;28.63;12.35;;;;;;;25.47;100.00;98485.44;5119422;27;20039;-95
2023/07/22 04:49:38;;;;;;;26.88;12.25;;;;;;;25.51;100.00;98481.44;5118658;27;20043;-94
2023/07/22 04:52:05;;;;;;;18.70;11.15;;;;;;;25.49;100.00;98470.69;5118679;27;20047;-93
2023/07/22 04:54:31;;;;;;;20.13;11.20;;;;;;;25.61;100.00;98476.84;5119558;27;20138;-95
2023/07/22 04:56:59;;;;;;;24.73;11.65;;;;;;;25.73;100.00;98483.00;5119748;27;20071;-95
2023/07/22 04:59:25;;;;;;;23.05;11.27;;;;;;;25.70;100.00;98472.38;5119297;27;20133;-96
2023/07/22 05:01:52;;;;;;;21.60;12.02;;;;;;;25.83;100.00;98486.59;5119368;27;20522;-95
2023/07/22 05:04:17;;;;;;;23.20;11.00;;;;;;;25.78;100.00;98481.53;5119599;27;20043;-96
2023/07/22 05:06:45;;;;;;;23.80;11.63;;;;;;;25.79;100.00;98486.00;5119858;27;20162;-96
2023/07/22 05:09:10;;;;;;;22.58;11.52;;;;;;;25.75;100.00;98478.28;5119369;27;20074;-96
2023/07/22 05:11:36;;;;;;;22.85;11.30;;;;;;;26.10;100.00;98491.28;5119448;27;20035;-95
2023/07/22 05:14:02;;;;;;;22.38;11.70;;;;;;;26.38;100.00;98486.75;5119332;27;20039;-92
2023/07/22 05:16:28;;;;;;;20.75;10.95;;;;;;;26.93;100.00;98498.75;5119013;28;20447;-95
2023/07/22 05:18:54;;;;;;;24.58;9.80;;;;;;;27.01;100.00;98494.25;5118857;28;20039;-95
2023/07/22 05:21:20;;;;;;;23.25;10.77;;;;;;;27.24;100.00;98505.66;5118984;28;20514;-94
2023/07/22 05:23:47;;;;;;;22.02;10.23;;;;;;;27.45;100.00;98504.47;5118997;27;20043;-95
2023/07/22 05:26:13;;;;;;;21.70;10.18;;;;;;;27.74;100.00;98504.25;5120017;28;20030;-95
2023/07/22 05:28:39;;;;;;;22.30;10.80;;;;;;;28.03;100.00;98498.53;5119476;28;20432;-96
2023/07/22 05:31:05;;;;;;;20.73;9.55;;;;;;;28.11;100.00;98508.69;5118239;28;20475;-96
2023/07/22 05:33:31;;;;;;;19.15;9.80;;;;;;;28.08;100.00;98495.31;5119213;28;20472;-96
2023/07/22 05:35:56;;;;;;;19.50;9.10;;;;;;;28.14;100.00;98496.56;5119267;28;20080;-95
2023/07/22 05:38:22;;;;;;;25.63;10.40;;;;;;;27.66;100.00;98499.56;5119621;28;20043;-95
2023/07/22 05:40:51;;;;;;;23.60;9.93;;;;;;;27.51;100.00;98512.06;5119125;28;20078;-95
2023/07/22 05:43:17;;;;;;;26.05;10.50;;;;;;;27.32;100.00;98504.00;5119110;27;20082;-95
2023/07/22 05:45:43;;;;;;;22.08;10.60;;;;;;;26.97;100.00;98500.16;5124476;27;20485;-95
2023/07/22 05:48:10;;;;;;;28.98;11.43;;;;;;;27.01;100.00;98527.00;5125175;27;20484;-95
2023/07/22 05:50:36;;;;;;;24.65;10.57;;;;;;;27.03;100.00;98524.13;5123257;27;20053;-94
2023/07/22 05:53:02;;;;;;;25.48;11.65;;;;;;;27.09;100.00;98526.25;5126832;27;20081;-95
2023/07/22 05:55:28;;;;;;;21.30;10.35;;;;;;;27.17;100.00;98542.72;5123752;27;20043;-92
2023/07/22 05:57:55;;;;;;;24.85;10.52;;;;;;;27.19;100.00;98537.09;5122918;27;20047;-96
2023/07/22 06:00:21;;;;;;;21.33;10.23;;;;;;;27.15;100.00;98533.84;5123687;27;20031;-95
2023/07/22 06:02:48;;;;;;;20.20;9.85;;;;;;;27.32;100.00;98531.31;5123856;27;20162;-95
2023/07/22 06:05:14;;;;;;;20.90;9.70;;;;;;;27.38;100.00;98537.00;5122658;27;20046;-95
2023/07/22 06:07:40;;;;;;;22.23;9.88;;;;;;;27.51;100.00;98544.81;5122276;27;20049;-96
2023/07/22 06:10:08;;;;;;;23.67;10.32;;;;;;;27.53;100.00;98548.25;5122292;27;20470;-95
2023/07/22 06:12:34;;;;;;;23.50;11.60;;;;;;;27.36;100.00;98549.94;5121316;27;20047;-93
2023/07/22 06:15:02;;;;;;;21.65;10.00;;;;;;;27.55;100.00;98542.66;5122205;27;20047;-95
2023/07/22 06:17:28;;;;;;;21.03;9.80;;;;;;;27.85;100.00;98539.56;5122235;27;20384;-95
2023/07/22 06:19:54;;;;;;;21.95;10.15;;;;;;;28.25;100.00;98521.75;5125497;27;20039;-96
2023/07/22 06:22:20;;;;;;;26.83;10.32;;;;;;;28.89;100.00;98529.69;5126496;27;20119;-93
2023/07/22 06:24:46;;;;;;;22.75;9.82;;;;;;;29.18;100.00;98551.22;5122850;27;20430;-95
2023/07/22 06:27:11;;;;;;;21.88;9.45;;;;;;;28.61;100.00;98540.84;5123313;27;20043;-95
2023/07/22 06:29:37;;;;;;;21.73;9.40;;;;;;;28.22;100.00;98551.31;5125799;27;20054;-96
2023/07/22 06:32:06;;;;;;;23.48;10.05;;;;;;;27.91;100.00;98561.81;5125434;27;20122;-94
2023/07/22 06:34:32;;;;;;;20.63;9.80;;;;;;;27.86;100.00;98537.69;5128052;27;20065;-94
2023/07/22 06:36:58;;;;;;;19.55;9.82;;;;;;;28.08;100.00;98557.34;5126046;27;20503;-94
2023/07/22 06:39:24;;;;;;;19.95;9.98;;;;;;;27.92;100.00;98547.13;5127106;27;20043;-95
2023/07/22 06:41:50;;;;;;;25.13;10.43;;;;;;;28.37;100.00;98563.38;5123052;27;20054;-94
2023/07/22 06:44:15;;;;;;;23.95;10.52;;;;;;;28.23;100.00;98562.06;5121819;27;20111;-92
2023/07/22 06:46:41;;;;;;;15.45;9.85;;;;;;;28.34;100.00;98555.47;5122400;27;20061;-93
2023/07/22 06:49:09;;;;;;;19.30;9.68;;;;;;;28.73;100.00;98546.88;5123289;27;20051;-94
2023/07/22 06:51:35;;;;;;;18.57;9.43;;;;;;;28.88;100.00;98553.44;5123623;27;20043;-95
2023/07/22 06:54:02;;;;;;;21.48;9.65;;;;;;;29.16;100.00;98550.53;5121869;27;20530;-94
2023/07/22 06:56:28;;;;;;;16.70;9.65;;;;;;;29.70;100.00;98555.69;5123100;27;20035;-93
2023/07/22 06:58:54;;;;;;;19.95;9.40;;;;;;;30.03;100.00;98544.75;5124032;27;20042;-94
2023/07/22 07:01:21;;;;;;;16.40;8.68;;;;;;;29.70;100.00;98544.72;5125601;27;20035;-95
2023/07/22 07:03:47;;;;;;;26.38;9.85;;;;;;;29.50;100.00;98546.88;5125080;27;20050;-96
2023/07/22 07:06:15;;;;;;;18.15;9.15;;;;;;;29.49;100.00;98558.84;5124484;27;20062;-94
2023/07/22 07:08:41;;;;;;;22.33;8.93;;;;;;;29.38;100.00;98545.47;5122904;27;20396;-93
2023/07/22 07:11:07;;;;;;;20.52;8.50;;;;;;;29.76;100.00;98552.28;5124852;27;20279;-94
2023/07/22 07:13:36;;;;;;;14.00;8.80;;;;;;;29.77;100.00;98559.44;5124249;27;20062;-95
2023/07/22 07:16:21;;;;;;;19.77;9.20;;;;;;;29.45;100.00;98571.16;5125161;27;20039;-94
2023/07/22 07:18:47;;;;;;;19.98;8.88;;;;;;;29.85;100.00;98575.91;5119128;27;20100;-93
2023/07/22 07:21:15;;;;;;;15.70;8.23;;;;;;;30.23;100.00;98575.41;5124448;27;20085;-93
2023/07/22 07:23:41;;;;;;;18.90;8.68;;;;;;;30.59;100.00;98573.19;5122706;27;20492;-95
2023/07/22 07:26:07;;;;;;;20.75;8.73;;;;;;;29.43;100.00;98565.88;5121546;27;20112;-93
2023/07/22 07:28:33;;;;;;;19.17;8.77;;;;;;;29.45;100.00;98560.19;5123146;27;20039;-95
2023/07/22 07:30:59;;;;;;;17.17;8.68;;;;;;;30.11;100.00;98569.44;5123232;27;20075;-96
2023/07/22 07:33:25;;;;;;;19.13;8.60;;;;;;;30.06;100.00;98574.56;5126109;27;20035;-92
2023/07/22 07:35:51;;;;;;;21.45;9.30;;;;;;;30.05;100.00;98579.19;5125136;27;20042;-95
2023/07/22 07:38:19;;;;;;;18.60;8.75;;;;;;;29.90;100.00;98567.19;5124940;27;20050;-95
2023/07/22 07:40:45;;;;;;;32.50;9.68;;;;;;;30.10;100.00;98578.66;5122530;27;20039;-95
2023/07/22 07:43:10;;;;;;;17.60;7.80;;;;;;;30.58;100.00;98584.31;5121220;27;20088;-95
2023/07/22 07:45:39;;;;;;;18.10;8.23;;;;;;;30.59;100.00;98583.31;5122681;27;20051;-94
2023/07/22 07:48:05;;;;;;;23.00;8.85;;;;;;;30.48;99.77;98590.00;5124106;27;20093;-95
2023/07/22 07:50:31;;;;;;;14.57;7.93;;;;;;;30.54;98.20;98597.56;5123178;27;20396;-96
2023/07/22 07:52:57;;;;;;;18.75;8.60;;;;;;;30.20;100.00;98584.84;5121719;27;20406;-96
2023/07/22 07:55:25;;;;;;;19.13;8.85;;;;;;;30.52;100.00;98587.78;5121447;27;20143;-95
2023/07/22 07:57:51;;;;;;;17.45;8.05;;;;;;;30.59;98.51;98586.06;5126224;27;20092;-94
2023/07/22 08:00:17;;;;;;;16.42;7.82;;;;;;;30.52;97.73;98583.16;5124391;27;20047;-95
2023/07/22 08:02:43;;;;;;;16.65;8.88;;;;;;;30.07;97.88;98601.81;5123573;27;20035;-95
2023/07/22 08:05:10;;;;;;;16.27;7.60;;;;;;;29.99;93.30;98588.09;5121431;27;20039;-95
2023/07/22 08:07:36;;;;;;;16.23;7.70;;;;;;;29.96;87.46;98571.13;5120868;27;20043;-96
2023/07/22 08:10:04;;;;;;;16.23;7.50;;;;;;;30.11;93.69;98585.88;5121059;27;20103;-95
2023/07/22 08:12:31;;;;;;;17.08;8.60;;;;;;;30.22;92.88;98563.59;5121699;27;20047;-94
2023/07/22 08:14:58;;;;;;;12.67;7.80;;;;;;;29.88;95.31;98580.19;5123870;27;20043;-95
2023/07/22 08:17:24;;;;;;;16.25;7.35;;;;;;;30.73;93.17;98588.09;5121985;27;20047;-96
2023/07/22 08:19:50;;;;;;;16.35;7.63;;;;;;;31.50;88.53;98590.28;5122910;27;20041;-95
2023/07/22 08:22:16;;;;;;;15.48;7.20;;;;;;;31.80;80.16;98582.19;5122920;27;20058;-95
2023/07/22 08:24:43;;;;;;;18.85;7.55;;;;;;;32.14;80.33;98579.06;5123692;27;20043;-95
2023/07/22 08:27:09;;;;;;;18.73;7.18;;;;;;;32.17;75.46;98553.06;5126203;27;20039;-96
2023/07/22 08:29:37;;;;;;;16.80;6.50;;;;;;;31.81;75.22;98556.41;5125004;27;20050;-95
2023/07/22 08:32:03;;;;;;;13.17;6.87;;;;;;;32.27;72.51;98550.91;5126492;27;20151;-95
2023/07/22 08:34:29;;;;;;;15.10;6.90;;;;;;;31.88;71.34;98558.25;5123370;27;20275;-93
2023/07/22 08:36:55;;;;;;;16.50;7.32;;;;;;;31.27;75.14;98569.06;5119920;27;20126;-95
2023/07/22 08:39:21;;;;;;;14.77;6.90;;;;;;;31.03;73.91;98569.16;5118510;27;20106;-92
2023/07/22 08:41:50;;;;;;;14.15;6.25;;;;;;;31.69;69.75;98570.56;5120917;27;20075;-95
2023/07/22 08:44:20;;;;;;;14.02;5.60;;;;;;;32.12;67.21;98557.22;5120056;27;20044;-95
2023/07/22 08:46:55;;;;;;;16.05;6.13;;;;;;;31.96;55.20;98553.72;5118991;27;20121;-94
2023/07/22 08:49:21;;;;;;;11.18;5.50;;;;;;;32.34;52.85;98562.91;5122283;27;20043;-95
2023/07/22 08:51:48;;;;;;;11.70;5.63;;;;;;;32.31;47.84;98547.63;5122319;27;20489;-95
2023/07/22 08:54:14;;;;;;;13.85;5.72;;;;;;;32.88;47.65;98559.09;5124169;27;20058;-95
2023/07/22 08:56:42;;;;;;;14.00;6.13;;;;;;;32.15;49.01;98552.41;5123230;27;20047;-95
2023/07/22 08:59:09;;;;;;;15.88;6.78;;;;;;;32.42;49.84;98559.19;5125295;27;20042;-96
2023/07/22 09:01:35;;;;;;;14.55;5.97;;;;;;;32.12;48.21;98553.63;5122981;27;20043;-94
2023/07/22 09:04:04;;;;;;;11.13;5.50;;;;;;;32.62;47.62;98565.03;5124067;27;20433;-95
2023/07/22 09:06:31;;;;;;;10.40;5.43;;;;;;;32.85;46.55;98563.06;5124386;27;20088;-95
2023/07/22 09:08:58;;;;;;;13.40;6.10;;;;;;;33.00;47.36;98560.31;5122932;27;20077;-96
2023/07/22 09:11:25;;;;;;;9.00;5.28;;;;;;;33.51;44.66;98565.06;5123620;27;20039;-95
2023/07/22 09:13:53;;;;;;;11.63;5.53;;;;;;;33.56;45.50;98557.06;5122475;27;20129;-93
2023/07/22 09:16:19;;;;;;;;;;;;;;;33.60;43.70;98565.84;5119971;27;20041;-94
2023/07/22 09:18:46;;;;;;;13.18;5.63;;;;;;;33.62;42.58;98569.25;5117319;28;19960;-93
2023/07/22 09:21:13;;;;;;;9.23;5.40;;;;;;;33.16;42.49;98573.09;5121233;27;20130;-94
2023/07/22 09:23:39;;;;;;;10.80;5.90;;;;;;;33.29;42.50;98559.50;5117266;28;20118;-94
2023/07/22 09:26:12;;;;;;;13.18;5.38;;;;;;;33.58;42.37;98549.44;5118543;27;20062;-94
2023/07/22 09:28:52;;;;;;;9.52;5.40;;;;;;;33.96;41.20;98566.66;5117800;28;20119;-95
2023/07/22 09:31:18;;;;;;;8.75;5.35;;;;;;;34.12;40.66;98568.31;5114850;28;20142;-94
2023/07/22 09:33:44;;;;;;;9.05;5.53;;;;;;;34.01;39.97;98566.06;5118649;28;20031;-92
2023/07/22 09:36:11;;;;;;;10.52;5.50;;;;;;;33.99;40.20;98551.59;5116096;28;20190;-93
2023/07/22 09:38:38;;;;;;;10.98;5.47;;;;;;;33.50;40.60;98564.19;5118845;28;20043;-94
2023/07/22 09:41:04;;;;;;;13.33;5.43;;;;;;;33.49;40.68;98570.75;5119043;28;20676;-96
2023/07/22 09:43:31;;;;;;;9.70;5.63;;;;;;;33.70;39.89;98536.88;5118344;27;20287;-93
2023/07/22 09:46:08;;;;;;;9.88;5.35;;;;;;;33.79;39.60;98553.28;5104548;28;20039;-94
2023/07/22 09:48:40;;;;;;;15.23;5.70;;;;;;;33.97;39.82;98567.50;5118431;28;20039;-95
2023/07/22 09:51:06;;;;;;;11.18;5.53;;;;;;;33.37;39.25;98560.41;5107815;28;20044;-94
2023/07/22 09:53:48;;;;;;;9.32;4.97;;;;;;;32.66;39.97;98556.25;5102996;28;20109;-96
2023/07/22 09:56:16;;;;;;;11.13;5.45;;;;;;;33.34;41.51;98568.03;5104696;28;20020;-95
2023/07/22 09:58:45;;;;;;;11.23;5.03;;;;;;;33.43;39.88;98543.97;5104142;27;20040;-96
2023/07/22 10:01:16;;;;;;;12.80;5.40;;;;;;;33.81;39.99;98537.41;5105934;28;20040;-96
2023/07/22 10:03:43;;;;;;;10.80;5.55;;;;;;;33.63;39.46;98568.19;5104359;28;20454;-94
2023/07/22 10:06:11;;;;;;;8.68;5.07;;;;;;;33.23;40.38;98552.00;5112872;28;20061;-96
2023/07/22 10:08:38;;;;;;;9.45;5.13;;;;;;;33.45;40.86;98550.13;5125781;28;20039;-96
2023/07/22 10:11:09;;;;;;;10.13;5.43;;;;;;;33.02;40.61;98535.34;5123608;28;20478;-96
2023/07/22 10:13:37;;;;;;;9.23;5.45;;;;;;;33.38;43.08;98559.34;5108587;28;20052;-95
2023/07/22 10:16:03;;;;;;;10.25;5.50;;;;;;;33.29;40.22;98545.72;5118065;28;20470;-94
2023/07/22 10:18:34;;;;;;;12.10;5.57;;;;;;;33.25;40.57;98549.91;5131226;28;20492;-96
2023/07/22 10:21:01;;;;;;;10.00;5.60;;;;;;;33.25;42.31;98580.22;5106277;28;20469;-96
2023/07/22 10:23:29;;;;;;;11.90;5.75;;;;;;;32.52;41.54;98549.66;5106865;28;20043;-95
2023/07/22 10:25:57;;;;;;;;;;;;;;;32.34;40.56;98584.91;5105143;28;20051;-95
2023/07/22 10:28:23;;;;;;;11.10;5.07;;;;;;;32.59;38.14;98557.19;5102146;28;19916;-96
2023/07/22 10:30:51;;;;;;;9.48;5.00;;;;;;;33.01;37.58;98547.41;5101467;28;20052;-94
2023/07/22 10:33:18;;;;;;;8.57;5.15;;;;;;;33.15;38.00;98554.84;5106826;28;20079;-96
2023/07/22 10:36:02;;;;;;;8.52;5.60;;;;;;;32.75;36.81;98551.50;5105513;28;20048;-95
2023/07/22 10:38:29;;;;;;;10.63;4.80;;;;;;;33.22;37.64;98555.78;5108225;28;20048;-95
2023/07/22 10:40:55;;;;;;;10.50;5.03;;;;;;;33.31;36.07;98559.28;5105962;27;20130;-95
2023/07/22 10:43:25;;;;;;;11.23;5.15;;;;;;;33.32;37.93;98548.06;5108523;27;20506;-96
2023/07/22 10:45:54;;;;;;;9.15;4.70;;;;;;;33.60;37.36;98558.41;5126395;27;20182;-93
2023/07/22 10:48:22;;;;;;;12.60;5.22;;;;;;;33.35;37.32;98533.03;5121923;27;20039;-95
2023/07/22 10:50:51;;;;;;;8.95;4.88;;;;;;;33.33;37.92;98535.13;5123647;27;20050;-96
2023/07/22 10:53:27;;;;;;;9.32;5.13;;;;;;;33.13;38.36;98512.84;5122518;27;20053;-95
2023/07/22 10:56:07;;;;;;;9.02;5.05;;;;;;;33.62;36.92;98541.66;5123143;27;20047;-96
2023/07/22 10:58:33;;;;;;;11.20;4.97;;;;;;;33.97;37.71;98524.19;5123240;27;20021;-96
2023/07/22 11:01:24;;;;;;;10.30;4.80;;;;;;;34.31;36.66;98543.84;5121687;27;20111;-95
2023/07/22 11:04:07;;;;;;;8.02;5.22;;;;;;;34.10;37.92;98537.28;5123985;27;20043;-94
2023/07/22 11:06:34;;;;;;;9.18;5.20;;;;;;;34.33;38.52;98548.13;5121947;27;20088;-93
2023/07/22 11:09:00;;;;;;;10.40;5.45;;;;;;;33.07;39.03;98533.78;5120620;27;20035;-94
2023/07/22 11:11:36;;;;;;;13.30;5.50;;;;;;;32.71;39.88;98545.50;5119770;27;20031;-94
2023/07/22 11:14:20;;;;;;;12.27;5.32;;;;;;;33.16;39.42;98540.03;5119124;27;20043;-96
2023/07/22 11:16:48;;;;;;;9.60;5.32;;;;;;;32.48;39.31;98544.69;5142674;27;20513;-92